• Join FlightAware (Why Join?)
  • Login
  • US Flag 
02:17AM EDT


 

Airport Tracker/Info


-or-


 

Live Flight TrackerFlight Track Log ✈ SWA1718 ✈ 22-Apr-2013 ✈ KDEN - KMDW

Flight Track Log - Related Links

Times and Time Zones

All times are in EDT time to prevent confusion due to time zone crossing. See the SWA1718 flight status page for this flight to view local times or setup timezone preferences in your user account.

Time Position Orientation Groundspeed Altitude Reporting Facility
EDT Latitude Longitude Course Direction KTS MPH feet Rate Location/Type
07:40PM 39.9167 -104.6167 78° East 214 246 8,400  Level Denver TRACON
07:41PM 39.9333 -104.5167 78° East 274 315 9,600 780 Climbing Denver TRACON
07:42PM 39.9500 -104.4333 75° East 279 321 10,000 360 Climbing Denver TRACON
07:43PM 39.9494 -104.3742 91° East 294 338 10,200 1,560 Climbing Denver Center
07:44PM 39.9242 -104.2594 106° East 328 377 12,400 1,980 Climbing Denver Center
07:45PM 39.9025 -104.1306 102° East 361 415 14,300 2,040 Climbing Denver Center
07:46PM 39.8819 -103.9836 100° East 383 441 16,700 1,980 Climbing Denver Center
07:47PM 39.8747 -103.8381 94° East 414 476 18,400 1,620 Climbing Denver Center
07:48PM 39.8878 -103.6847 84° East 412 474 20,100 1,740 Climbing Denver Center
07:49PM 39.9072 -103.5272 81° East 433 498 22,000 1,920 Climbing Denver Center
07:50PM 39.9250 -103.3639 82° East 449 517 24,100 1,740 Climbing Denver Center
07:51PM 39.9456 -103.1978 81° East 461 531 25,600 1,320 Climbing Denver Center
07:52PM 39.9653 -103.0236 82° East 478 550 26,900 1,080 Climbing Denver Center
07:53PM 39.9842 -102.8403 82° East 502 578 27,900 960 Climbing Denver Center
07:54PM 40.0072 -102.6322 82° East 525 604 28,900 1,020 Climbing Denver Center
07:55PM 40.0261 -102.4456 82° East 540 621 30,100 1,500 Climbing Denver Center
07:56PM 40.0467 -102.2278 83° East 542 624 32,000 1,560 Climbing Denver Center
07:57PM 40.0661 -102.0469 82° East 532 612 33,400 1,440 Climbing Denver Center
07:58PM 40.0875 -101.8350 82° East 527 606 35,000 780 Climbing Denver Center
07:59PM 40.1058 -101.6550 82° East 525 604 35,000  Level Denver Center
08:00PM 40.1250 -101.4414 83° East 531 611 35,000  Level Denver Center
08:01PM 40.1433 -101.2575 83° East 534 615 35,000  Level Denver Center
08:02PM 40.1606 -101.0708 83° East 541 623 35,000  Level Denver Center
08:03PM 40.1808 -100.8542 83° East 542 624 35,000  Level Denver Center
08:04PM 40.1972 -100.6650 83° East 547 629 35,000  Level Denver Center
08:05PM 40.2064 -100.4436 87° East 553 636 35,000  Level Denver Center
08:06PM 40.2092 -100.2536 89° East 550 633 35,000  Level Denver Center
08:07PM 40.2122 -100.0331 89° East 546 628 35,000  Level Denver Center
08:08PM 40.2147 -99.8461 89° East 546 628 35,000  Level Denver Center
08:09PM 40.2169 -99.6503 89° East 541 623 35,000  Level Denver Center
08:10PM 40.2183 -99.4525 89° East 544 626 35,000  Level Denver Center
08:12PM 40.2197 -99.2167 89° East 544 626 35,000  Level Denver Center
08:13PM 40.2217 -99.0194 89° East 544 626 35,000  Level Denver Center
08:14PM 40.2219 -98.8236 90° East 543 625 35,000  Level Denver Center
08:14PM 40.2225 -98.7850 89° East 544 626 35,000  Level Minneapolis Center
08:15PM 40.2219 -98.5492 90° East 543 625 35,000  Level Minneapolis Center
08:16PM 40.2231 -98.3556 90° East 538 619 35,000  Level Minneapolis Center
08:17PM 40.2222 -98.1606 90° East 538 619 35,000  Level Minneapolis Center
08:18PM 40.2214 -97.9669 90° East 535 616 35,000  Level Minneapolis Center
08:19PM 40.2206 -97.7753 90° East 531 611 35,000  Level Minneapolis Center
08:20PM 40.2181 -97.5811 91° East 534 615 35,000  Level Minneapolis Center
08:21PM 40.2172 -97.3872 90° East 535 616 35,000  Level Minneapolis Center
08:22PM 40.2156 -97.1714 91° East 535 616 35,000  Level Minneapolis Center
08:23PM 40.2139 -96.9789 91° East 533 613 35,000  Level Minneapolis Center
08:24PM 40.2417 -96.7972 79° East 515 593 35,000  Level Minneapolis Center
08:25PM 40.2711 -96.6144 78° East 515 593 35,000  Level Minneapolis Center
08:26PM 40.3056 -96.3944 78° East 516 594 35,000  Level Minneapolis Center
08:27PM 40.3339 -96.2131 78° East 514 592 35,000  Level Minneapolis Center
08:28PM 40.3625 -96.0322 78° East 510 587 35,000  Level Minneapolis Center
08:29PM 40.3886 -95.8486 79° East 514 592 35,000  Level Minneapolis Center
08:30PM 40.4178 -95.6672 78° East 512 589 35,000  Level Minneapolis Center
08:31PM 40.4442 -95.4856 79° East 510 587 35,000  Level Minneapolis Center
08:32PM 40.4761 -95.2692 79° East 507 583 35,000  Level Minneapolis Center
08:33PM 40.5033 -95.0883 79° East 507 583 35,000  Level Minneapolis Center
08:34PM 40.5297 -94.9078 79° East 506 582 35,000  Level Minneapolis Center
08:35PM 40.5550 -94.7272 80° East 505 581 35,000  Level Minneapolis Center
08:37PM 40.5806 -94.5489 79° East 501 577 35,000  Level Minneapolis Center
08:38PM 40.6083 -94.3450 80° East 501 577 35,000  Level Minneapolis Center
08:39PM 40.6325 -94.1669 80° East 500 575 35,000  Level Minneapolis Center
08:40PM 40.6544 -93.9875 81° East 500 575 35,000  Level Minneapolis Center
08:41PM 40.6781 -93.8097 80° East 498 573 35,000  Level Minneapolis Center
08:42PM 40.7033 -93.6311 79° East 498 573 35,000  Level Minneapolis Center
08:43PM 40.7264 -93.4547 80° East 494 568 35,000  Level Minneapolis Center
08:44PM 40.7533 -93.2428 80° East 492 566 35,000  Level Minneapolis Center
08:45PM 40.7753 -93.0686 80° East 487 560 35,000  Level Minneapolis Center
08:46PM 40.7975 -92.8933 80° East 484 557 35,000  Level Minneapolis Center
08:47PM 40.8142 -92.7542 81° East 479 551 35,000 -180 Level Chicago Center
08:48PM 40.8353 -92.5842 81° East 471 542 34,700 -600 Descending Chicago Center
08:49PM 40.8558 -92.4136 81° East 470 541 33,800 -900 Descending Chicago Center
08:50PM 40.8764 -92.2436 81° East 470 541 32,900 -960 Descending Chicago Center
08:51PM 40.8961 -92.0756 81° East 465 535 31,900 -840 Descending Chicago Center
08:52PM 40.9194 -91.8725 81° East 468 539 31,300 -540 Descending Chicago Center
08:53PM 40.9389 -91.6981 82° East 478 550 30,900 -480 Descending Chicago Center
08:54PM 40.9586 -91.5244 81° East 480 552 30,400 -540 Descending Chicago Center
08:55PM 40.9786 -91.3536 81° East 476 548 29,900 -540 Descending Chicago Center
08:56PM 40.9986 -91.1828 81° East 475 547 29,400 -840 Descending Chicago Center
08:57PM 41.0164 -91.0122 82° East 471 542 28,200 -1,680 Descending Chicago Center
08:58PM 41.0344 -90.8464 82° East 461 531 26,000 -2,040 Descending Chicago Center
08:59PM 41.0536 -90.6611 82° East 425 489 24,000 -1,440 Descending Chicago Center
09:00PM 41.0694 -90.5186 82° East 395 455 23,100 -540 Descending Chicago Center
09:01PM 41.0839 -90.3636 83° East 420 483 23,000 -60 Descending Chicago Center
09:02PM 41.0986 -90.2100 83° East 418 481 23,000 -540 Level Chicago Center
09:03PM 41.1136 -90.0572 83° East 415 478 21,900 -1,620 Descending Chicago Center
09:04PM 41.1294 -89.9056 82° East 414 476 19,700 -2,100 Descending Chicago Center
09:05PM 41.1442 -89.7608 82° East 398 458 17,700 -2,100 Descending Chicago Center
09:06PM 41.1575 -89.6214 83° East 384 442 15,400 -2,100 Descending Chicago Center
09:07PM 41.1675 -89.4853 84° East 374 430 13,500 -1,980 Descending Chicago Center
09:08PM 41.1756 -89.3586 85° East 348 400 11,400 -1,800 Descending Chicago Center
09:09PM 41.1864 -89.2064 85° East 345 397 9,900 -780 Descending Chicago Center
09:10PM 41.1942 -89.0767 85° East 341 392 9,900  Level Chicago Center
09:11PM 41.2022 -88.9589 85° East 329 379 10,000  Climbing Chicago Center
09:12PM 41.2100 -88.8367 85° East 333 383 10,000  Level Chicago Center
09:13PM 41.2158 -88.7122 86° East 340 391 10,000 -300 Level Chicago Center
09:14PM 41.2731 -88.6236 49° Northeast 322 371 9,500 -1,200 Descending Chicago Center
09:15PM 41.3403 -88.5492 40° Northeast 314 361 7,600 -1,620 Descending Chicago Center
09:16PM 41.4067 -88.4756 40° Northeast 313 360 6,200 -840 Descending Chicago Center
09:17PM 41.4811 -88.3914 40° Northeast 302 348 6,000 -180 Descending Chicago Center
09:18PM 41.5447 -88.3192 40° Northeast 300 345 5,900 -240 Descending Chicago Center
09:19PM 41.6047 -88.2458 42° Northeast 294 338 5,600 -840 Descending Chicago Center
09:20PM 41.6381 -88.1536 64° Northeast 284 327 4,200 -840 Descending Chicago Center
09:22PM 41.6694 -88.0692 64° Northeast 267 307 3,900 -660 Descending Chicago Center
09:23PM 41.7056 -87.9958 57° Northeast 250 288 2,900 -840 Descending Chicago Center
09:24PM 41.7500 -87.9342 46° Northeast 239 275 2,300 -540 Descending Chicago Center
09:25PM 41.7864 -87.8831 46° Northeast 215 247 1,900 -300 Descending Chicago Center
09:26PM 41.8164 -87.8228 56° Northeast 180 207 1,800 -480 Descending Chicago Center
09:27PM 41.8061 -87.7806 108° East 144 166 1,000 -420 Descending Chicago Center
09:28PM 41.7850 -87.7481 131° Southeast 139 160 1,000  Level Chicago Center